Pep, Texas
Current Conditions -  °F | °C
As of 2:53 PM on Thursday 27 Nov 2014 (Local Time) from KLBB Reporting Station
Few Clouds Few Clouds  
Wind Chill: 14°   Ceiling: Unl
Heat Index: 14°   Visibility: 10mi
Dew Point: -1°   Wind: 16mph
Humidity: 35%   Direction: 210°SSW
Pressure: 30.32"   Gusts: NA
Location:  33.81°N, 102.56°W
Report Text: KLBB 272053Z 21014KT 10SM FEW300 14/M01 A3032 RMK AO2 SLP256 T01441011 56038
Loading
Personal Weather Stations






























Interactive Weather Map New forecast layout! Learn more

10-Day Weather Forecast

Advertisements
Track Severe Weather on mobile